Biwabik, Minnesota
Current Conditions -  °F | °C
As of 10:11 AM on Monday 24 Nov 2014 (Local Time) from KEVM Reporting Station
Unknown Precip Unknown Precip  
Wind Chill: 11°   Ceiling: 900
Heat Index: 25°   Visibility: 5mi
Dew Point: 21°   Wind: 20mph
Humidity: 86%   Direction: 330°NNW
Pressure: 29.37"   Gusts: 31mph
Location:  47.53°N, 92.34°W
Report Text: KEVM 241611Z AUTO 33017G27KT 5SM UP OVC009 M04/M06 A2937 RMK AO2
Loading
Personal Weather Stations






























Interactive Weather Map New forecast layout! Learn more

10-Day Weather Forecast

Advertisements
Track Severe Weather on mobile